Lakeway's Hourly Summary for Wednesday, March 15, 2017
Hour Temp
(f)
RH
(%)
Solar Rad.
(MJ/m2)
Rainfall
(in)
Wind
(mph)
3/15/2017 12:00 AM 55 57 0 0 0.51
3/15/2017 1:00 AM 54 61 0 0 0.93
3/15/2017 2:00 AM 52 66 0 0 1.65
3/15/2017 3:00 AM 52 77 0 0 2.77
3/15/2017 4:00 AM 51 89 0 0 1.59
3/15/2017 5:00 AM 49 94 0 0 0.14
3/15/2017 6:00 AM 48 99 0 0 0.05
3/15/2017 7:00 AM 48 100 0 0 0.02
3/15/2017 8:00 AM 48 100 0.01 0 0.2
3/15/2017 9:00 AM 48 100 0.08 0 0.05
3/15/2017 10:00 AM 54 80 0.85 0 0.51
3/15/2017 11:00 AM 58 71 1.85 0 1.57
3/15/2017 12:00 PM 63 53 2.49 0 1.75
3/15/2017 1:00 PM 66 40 2.93 0 1.98
3/15/2017 2:00 PM 69 34 2.74 0 2.26
3/15/2017 3:00 PM 71 30 2.05 0 2.25
3/15/2017 4:00 PM 72 34 2.38 0 2.67
3/15/2017 5:00 PM 72 38 2.2 0 2.76
3/15/2017 6:00 PM 71 36 1.56 0 3.01
3/15/2017 7:00 PM 69 42 0.5 0 2.35
3/15/2017 8:00 PM 67 51 0.07 0 2.14
3/15/2017 9:00 PM 65 62 0 0 2.25
3/15/2017 10:00 PM 63 68 0 0 2.02
3/15/2017 11:00 PM 62 74 0 0 2.31
Data Summary 59 64 19.71 0.00 1.57